Time;durP1;ratioP1;P1;durP2;ratioP2;P2;SDS_P1;SDS_P2;PMS_P1;PMS_P2;Temp;Humidity;BMP_temperature;BMP_pressure;BME280_temperature;BME280_humidity;BME280_pressure;Samples;Min_cycle;Max_cycle;Signal;HPM_P1;HPM_P2
2023/12/01 07:15:54;;;;;;;5.40;1.67;;;23.10;77.20;;;;;;6203310;23;20035;-66
2023/12/01 07:18:22;;;;;;;4.95;1.20;;;23.00;76.90;;;;;;6159473;23;20026;-65
2023/12/01 07:20:49;;;;;;;7.60;1.55;;;23.00;77.70;;;;;;6159540;23;20704;-65
2023/12/01 07:23:17;;;;;;;6.88;1.65;;;23.00;76.80;;;;;;6210658;23;20031;-66
2023/12/01 07:25:48;;;;;;;244.30;59.85;;;22.90;77.10;;;;;;6182838;23;20015;-66
2023/12/01 07:28:15;;;;;;;113.22;26.55;;;22.90;77.20;;;;;;6184776;23;20028;-67
2023/12/01 07:30:42;;;;;;;8.05;1.75;;;22.90;78.10;;;;;;6207658;23;20819;-66
2023/12/01 07:33:10;;;;;;;9.27;1.88;;;22.80;78.10;;;;;;6210103;23;19997;-66
2023/12/01 07:35:37;;;;;;;9.18;1.35;;;22.80;78.20;;;;;;6183618;23;20067;-66
2023/12/01 07:38:05;;;;;;;6.10;1.60;;;22.80;77.80;;;;;;6184537;23;20071;-66
2023/12/01 07:40:32;;;;;;;5.00;1.30;;;22.90;78.10;;;;;;6210486;23;20012;-66
2023/12/01 07:43:00;;;;;;;11.00;2.15;;;22.80;77.50;;;;;;6210283;23;20008;-66
2023/12/01 07:45:27;;;;;;;6.20;1.67;;;22.80;78.20;;;;;;6183501;23;20028;-67
2023/12/01 07:47:57;;;;;;;5.07;1.30;;;22.80;78.60;;;;;;6210452;23;20489;-66
2023/12/01 07:50:25;;;;;;;13.63;1.58;;;22.60;78.10;;;;;;6160550;23;20095;-67
2023/12/01 07:52:52;;;;;;;11.32;1.70;;;22.60;78.70;;;;;;6210436;23;19997;-67
2023/12/01 07:55:20;;;;;;;5.93;1.80;;;22.60;79.30;;;;;;6183990;23;20008;-66
2023/12/01 07:57:48;;;;;;;7.03;2.33;;;22.60;79.00;;;;;;6160018;23;20041;-67
2023/12/01 08:00:16;;;;;;;9.57;1.67;;;22.50;79.30;;;;;;6181128;23;20055;-67
2023/12/01 08:02:52;;;;;;;8.35;1.90;;;22.50;79.60;;;;;;6210050;23;20352;-67
2023/12/01 08:05:20;;;;;;;18.63;5.38;;;22.50;79.60;;;;;;6182859;23;20017;-75
2023/12/01 08:07:52;;;;;;;7.50;1.50;;;22.50;79.40;;;;;;6159407;23;20005;-66
2023/12/01 08:10:19;;;;;;;7.03;1.75;;;22.40;79.60;;;;;;6211456;23;20008;-67
2023/12/01 08:12:47;;;;;;;9.55;1.70;;;22.40;79.60;;;;;;6211958;23;20005;-67
2023/12/01 08:15:15;;;;;;;10.98;1.83;;;22.50;79.50;;;;;;6211982;23;20369;-68
2023/12/01 10:41:22;;;;;;;8.30;2.10;;;22.00;83.80;;;;;;6206423;23;20099;-68
2023/12/01 10:43:49;;;;;;;11.32;2.33;;;22.00;83.90;;;;;;6185519;23;20087;-69
2023/12/01 10:46:17;;;;;;;11.93;2.63;;;21.90;84.10;;;;;;6160050;23;20428;-70
2023/12/01 10:48:44;;;;;;;11.52;2.35;;;22.00;83.90;;;;;;6160244;23;20462;-70
2023/12/01 10:51:11;;;;;;;10.57;2.30;;;21.90;83.90;;;;;;6160623;23;20009;-67
2023/12/01 10:53:40;;;;;;;9.60;2.58;;;21.90;84.10;;;;;;6184820;23;20007;-67
2023/12/01 10:56:10;;;;;;;12.63;3.10;;;21.80;83.80;;;;;;6160866;23;20016;-67
2023/12/01 10:58:38;;;;;;;9.48;2.15;;;21.90;84.00;;;;;;6160169;23;20463;-67
2023/12/01 11:01:05;;;;;;;13.80;2.22;;;21.90;84.20;;;;;;6208296;23;20100;-67
2023/12/01 11:03:34;;;;;;;11.68;2.25;;;21.80;83.70;;;;;;6211337;23;20051;-66
2023/12/01 11:06:10;;;;;;;10.65;2.33;;;21.80;84.10;;;;;;6184840;23;20115;-66
2023/12/01 11:08:41;;;;;;;11.88;2.25;;;21.90;84.20;;;;;;6183714;23;19997;-66
2023/12/01 11:11:18;;;;;;;12.73;2.55;;;21.80;83.90;;;;;;6210735;23;20019;-66
2023/12/01 11:14:12;;;;;;;20.60;3.28;;;21.80;84.20;;;;;;6184723;23;20015;-66
2023/12/01 11:16:39;;;;;;;8.98;2.33;;;21.80;84.40;;;;;;6196198;23;20005;-64
2023/12/01 11:19:12;;;;;;;13.50;3.33;;;21.80;84.00;;;;;;6184492;23;20094;-66
2023/12/01 11:21:43;;;;;;;11.90;2.22;;;21.80;84.00;;;;;;6185337;23;20115;-65
2023/12/01 11:24:32;;;;;;;11.40;2.58;;;21.80;84.10;;;;;;6210483;23;20004;-66
2023/12/01 11:27:06;;;;;;;6.40;2.17;;;21.80;84.10;;;;;;6211106;23;20008;-66
2023/12/01 11:29:37;;;;;;;12.75;2.42;;;21.80;84.00;;;;;;6210814;23;20011;-67
2023/12/01 11:32:04;;;;;;;8.43;2.10;;;21.80;83.90;;;;;;6210991;23;20502;-68
2023/12/01 11:34:32;;;;;;;463.55;130.35;;;21.80;83.80;;;;;;6184112;23;20004;-69
2023/12/01 11:37:05;;;;;;;89.65;26.58;;;21.80;83.70;;;;;;6184627;23;20004;-67
2023/12/01 11:39:34;;;;;;;107.45;37.00;;;21.80;83.90;;;;;;6211356;23;20085;-67
2023/12/01 11:42:01;;;;;;;13.15;2.63;;;21.80;84.00;;;;;;6183242;23;20044;-65
2023/12/01 11:44:35;;;;;;;11.20;2.30;;;21.80;84.10;;;;;;6210084;23;20016;-66
2023/12/01 11:47:04;;;;;;;10.40;2.13;;;21.80;83.40;;;;;;6210515;23;20012;-66
2023/12/01 11:49:38;;;;;;;9.48;2.05;;;21.80;84.00;;;;;;6159986;23;20344;-65
2023/12/01 11:52:18;;;;;;;13.15;2.30;;;21.80;83.80;;;;;;6185387;23;20005;-66
2023/12/01 11:54:47;;;;;;;;;;;21.80;83.70;;;;;;6211739;23;20001;-67
2023/12/01 11:57:17;;;;;;;11.75;2.10;;;21.70;83.60;;;;;;6210685;23;19987;-68
2023/12/01 11:59:45;;;;;;;183.10;63.20;;;21.70;83.60;;;;;;6184354;23;20352;-66
2023/12/01 12:02:14;;;;;;;484.40;145.45;;;21.60;83.70;;;;;;6208495;23;20079;-73
2023/12/01 12:04:42;;;;;;;8.18;2.22;;;21.60;83.80;;;;;;6185861;23;20435;-66
2023/12/01 12:07:11;;;;;;;9.55;2.03;;;21.70;83.60;;;;;;6139089;23;20009;-66
2023/12/01 12:09:38;;;;;;;13.00;2.40;;;21.70;83.30;;;;;;6214525;23;20012;-66
2023/12/01 12:12:09;;;;;;;9.55;2.33;;;21.70;83.50;;;;;;6214200;23;19997;-66
2023/12/01 12:14:38;;;;;;;11.35;2.20;;;21.70;83.30;;;;;;6188872;23;20080;-66
2023/12/01 12:17:05;;;;;;;8.65;2.05;;;21.70;83.10;;;;;;6213979;23;20337;-66
2023/12/01 12:19:42;;;;;;;11.00;2.05;;;21.70;83.30;;;;;;6163154;23;20005;-66
2023/12/01 12:22:09;;;;;;;9.20;2.17;;;21.70;83.10;;;;;;6187173;23;20338;-66
2023/12/01 12:24:37;;;;;;;7.32;1.90;;;21.70;83.00;;;;;;6213867;23;20001;-66
2023/12/01 12:27:04;;;;;;;11.15;2.20;;;21.70;82.30;;;;;;6214151;23;20004;-66
2023/12/01 12:29:34;;;;;;;7.82;1.95;;;21.60;82.60;;;;;;6187632;23;20052;-66
2023/12/01 12:32:01;;;;;;;10.02;2.13;;;21.60;82.70;;;;;;6187587;23;20092;-66
2023/12/01 12:34:28;;;;;;;763.35;237.57;;;21.70;82.60;;;;;;6213828;23;20027;-66
2023/12/01 12:36:56;;;;;;;1043.13;302.88;;;21.70;82.30;;;;;;6186591;23;20352;-66
2023/12/01 12:39:27;;;;;;;829.05;229.10;;;21.70;82.20;;;;;;6161613;23;20647;-66
2023/12/01 12:41:59;;;;;;;11.60;2.60;;;21.60;82.20;;;;;;6185770;23;20456;-66
2023/12/01 12:44:29;;;;;;;10.05;2.15;;;21.60;82.40;;;;;;6213741;23;20005;-66
2023/12/01 12:47:02;;;;;;;11.63;2.50;;;21.60;82.70;;;;;;6188597;23;20087;-66
2023/12/01 12:49:33;;;;;;;11.15;2.40;;;21.60;82.30;;;;;;6162911;23;20012;-66
2023/12/01 12:52:01;;;;;;;8.85;2.25;;;21.50;82.40;;;;;;6187166;23;20484;-66
2023/12/01 12:54:28;;;;;;;11.73;2.58;;;21.50;81.90;;;;;;6214254;23;20087;-66
2023/12/01 12:56:55;;;;;;;11.43;2.20;;;21.50;82.00;;;;;;6189895;23;20001;-66
2023/12/01 12:59:23;;;;;;;9.05;2.25;;;21.50;82.30;;;;;;6138197;23;20523;-66
2023/12/01 13:01:51;;;;;;;16.15;2.30;;;21.50;82.50;;;;;;6121139;23;20014;-66
2023/12/01 13:04:19;;;;;;;11.90;2.08;;;21.50;82.50;;;;;;6097123;23;20054;-66
2023/12/01 13:06:46;;;;;;;8.95;2.30;;;21.50;82.70;;;;;;6097192;23;20010;-66
2023/12/01 13:09:13;;;;;;;8.98;2.10;;;21.50;82.60;;;;;;6097538;23;20003;-66
2023/12/01 13:11:41;;;;;;;15.45;2.83;;;21.40;82.70;;;;;;6096727;23;20009;-66
2023/12/01 13:14:09;;;;;;;9.63;2.10;;;21.40;82.60;;;;;;6097070;23;20010;-66
2023/12/01 13:16:36;;;;;;;13.68;2.50;;;21.50;82.60;;;;;;6096790;23;20081;-66
2023/12/01 13:19:03;;;;;;;9.20;2.10;;;21.50;82.80;;;;;;6097208;23;20014;-66
2023/12/01 13:21:35;;;;;;;7.18;2.10;;;21.50;82.30;;;;;;6096966;23;20066;-66
2023/12/01 13:24:03;;;;;;;11.80;2.20;;;21.50;82.50;;;;;;6096334;23;20303;-66
2023/12/01 13:26:30;;;;;;;16.17;2.17;;;21.50;82.50;;;;;;6096841;23;20037;-66
2023/12/01 13:28:57;;;;;;;8.93;2.13;;;21.40;82.70;;;;;;6097386;23;20037;-66
2023/12/01 13:31:24;;;;;;;11.77;2.60;;;21.40;82.70;;;;;;6096975;23;20002;-66
2023/12/01 13:33:55;;;;;;;10.38;2.60;;;21.40;82.50;;;;;;6119876;23;20077;-66
2023/12/01 13:36:22;;;;;;;10.02;2.45;;;21.50;82.80;;;;;;6095440;23;20429;-66
2023/12/01 13:38:50;;;;;;;11.75;2.10;;;21.40;82.80;;;;;;6097113;23;20057;-67
2023/12/01 13:41:18;;;;;;;7.28;2.38;;;21.40;83.00;;;;;;6096905;23;20045;-66
2023/12/01 13:43:45;;;;;;;13.38;2.25;;;21.40;82.50;;;;;;6096958;23;20422;-67
2023/12/01 13:46:15;;;;;;;7.88;2.42;;;21.50;83.00;;;;;;6097078;23;20311;-66
2023/12/01 13:48:42;;;;;;;13.15;2.38;;;21.40;82.40;;;;;;6096637;23;20012;-66
2023/12/01 13:51:09;;;;;;;17.23;2.58;;;21.40;82.30;;;;;;6096604;23;20003;-66
2023/12/01 13:53:36;;;;;;;6.15;2.03;;;21.40;82.80;;;;;;6119328;23;20006;-66
2023/12/01 13:56:04;;;;;;;7.65;1.98;;;21.40;82.80;;;;;;6097263;23;20414;-66
2023/12/01 13:58:31;;;;;;;10.38;2.10;;;21.30;82.70;;;;;;6097168;23;20007;-66
2023/12/01 14:00:58;;;;;;;13.50;2.55;;;21.40;82.90;;;;;;6123943;23;20022;-66
2023/12/01 14:03:25;;;;;;;8.77;1.90;;;21.40;82.80;;;;;;6125863;23;20006;-66
2023/12/01 14:05:53;;;;;;;9.38;2.00;;;21.40;83.00;;;;;;6125157;23;20041;-66
2023/12/01 14:08:22;;;;;;;10.07;2.05;;;21.40;82.50;;;;;;6125849;23;20057;-66
2023/12/01 14:10:49;;;;;;;7.55;2.00;;;21.40;83.00;;;;;;6126019;23;20006;-67
2023/12/01 14:13:17;;;;;;;10.68;2.00;;;21.40;83.00;;;;;;6125921;23;20009;-66
2023/12/01 14:15:44;;;;;;;16.55;3.25;;;21.40;82.90;;;;;;6100040;23;20080;-66
2023/12/01 14:18:11;;;;;;;8.43;1.98;;;21.40;82.60;;;;;;6126134;23;20017;-66
2023/12/01 14:20:39;;;;;;;9.50;2.40;;;21.40;82.70;;;;;;6100365;23;20013;-66
2023/12/01 14:23:06;;;;;;;9.88;2.40;;;21.50;83.10;;;;;;6125708;23;20014;-66
2023/12/01 14:25:39;;;;;;;10.73;1.90;;;21.40;82.60;;;;;;6148657;23;20013;-66
2023/12/01 14:28:06;;;;;;;7.65;1.92;;;21.40;82.70;;;;;;6123800;23;20033;-66
2023/12/01 14:30:36;;;;;;;11.00;2.40;;;21.40;82.40;;;;;;6125765;23;20002;-66
2023/12/01 14:33:04;;;;;;;7.20;2.45;;;21.40;82.60;;;;;;6125873;23;20006;-66
2023/12/01 14:35:31;;;;;;;8.98;2.40;;;21.30;82.00;;;;;;6125729;23;19997;-66
2023/12/01 14:37:58;;;;;;;5.32;1.98;;;21.30;82.50;;;;;;6126022;23;20056;-66
2023/12/01 14:40:25;;;;;;;11.50;1.90;;;21.30;82.60;;;;;;6125593;23;20034;-66
2023/12/01 14:42:53;;;;;;;6.47;2.10;;;21.30;82.90;;;;;;6126143;23;20001;-66
2023/12/01 14:45:20;;;;;;;6.15;2.00;;;21.20;82.90;;;;;;6125716;23;20072;-66
2023/12/01 14:47:47;;;;;;;13.57;2.15;;;21.30;82.80;;;;;;6125440;23;20006;-66
2023/12/01 14:50:15;;;;;;;8.18;2.17;;;21.30;82.90;;;;;;6099623;23;20038;-66
2023/12/01 14:52:42;;;;;;;8.45;2.17;;;21.30;82.80;;;;;;6125317;23;19998;-66
2023/12/01 14:55:10;;;;;;;6.93;2.00;;;21.30;82.90;;;;;;6125611;23;20006;-66
2023/12/01 14:57:37;;;;;;;11.70;2.10;;;21.30;82.70;;;;;;6148130;23;20017;-66
2023/12/01 15:00:10;;;;;;;5.57;1.92;;;21.30;82.50;;;;;;6124712;23;20077;-66
2023/12/01 15:02:38;;;;;;;10.45;2.15;;;21.30;82.90;;;;;;6124830;23;20056;-66
2023/12/01 15:05:05;;;;;;;6.63;1.85;;;21.20;82.90;;;;;;6124879;23;20053;-66
2023/12/01 15:07:33;;;;;;;8.18;2.00;;;21.20;83.10;;;;;;6125678;23;20429;-66
2023/12/01 15:10:00;;;;;;;6.25;1.75;;;21.20;83.20;;;;;;6125503;23;20337;-66
2023/12/01 15:12:27;;;;;;;8.63;2.22;;;21.20;83.10;;;;;;6125231;23;19998;-66
2023/12/01 15:14:55;;;;;;;8.20;2.00;;;21.20;83.30;;;;;;6125401;23;20005;-66
2023/12/01 15:17:22;;;;;;;9.02;2.05;;;21.20;83.00;;;;;;6125480;23;20413;-66
2023/12/01 15:19:50;;;;;;;10.30;2.42;;;21.20;83.10;;;;;;6125293;23;20087;-66
2023/12/01 15:22:17;;;;;;;14.25;2.72;;;21.10;83.10;;;;;;6099778;23;20381;-66
2023/12/01 15:24:45;;;;;;;7.13;2.30;;;21.20;83.20;;;;;;6124662;23;20002;-66
2023/12/01 15:27:12;;;;;;;8.68;2.17;;;21.10;83.20;;;;;;6125582;23;20002;-66
2023/12/01 15:29:39;;;;;;;7.35;2.05;;;21.10;83.10;;;;;;6125197;23;20401;-66
2023/12/01 15:32:07;;;;;;;5.03;1.83;;;21.20;82.90;;;;;;6098887;23;20053;-66
2023/12/01 15:34:34;;;;;;;8.13;2.10;;;21.30;83.00;;;;;;6125299;23;20002;-66
2023/12/01 15:37:01;;;;;;;13.10;2.60;;;21.20;82.90;;;;;;6125244;23;20497;-66
2023/12/01 15:39:28;;;;;;;6.90;1.90;;;21.20;83.30;;;;;;6125402;23;20001;-66
2023/12/01 15:41:56;;;;;;;5.50;1.75;;;21.20;83.40;;;;;;6098915;23;20073;-66
2023/12/01 15:44:23;;;;;;;8.85;2.13;;;21.20;83.10;;;;;;6125378;23;20073;-66
2023/12/01 15:46:50;;;;;;;10.82;2.63;;;21.20;82.90;;;;;;6125530;23;20002;-66
2023/12/01 15:49:17;;;;;;;8.73;1.92;;;21.10;82.90;;;;;;6125549;23;20377;-66
2023/12/01 15:51:44;;;;;;;10.07;2.28;;;21.20;83.20;;;;;;6125117;23;20069;-66
2023/12/01 15:54:12;;;;;;;5.97;1.85;;;21.20;83.70;;;;;;6124880;23;20436;-66
2023/12/01 15:56:39;;;;;;;4.97;1.70;;;21.20;83.40;;;;;;6125440;23;20025;-66
2023/12/01 15:59:07;;;;;;;4.60;1.55;;;21.10;83.20;;;;;;6125156;23;20022;-67
2023/12/01 16:01:34;;;;;;;6.47;2.00;;;21.10;83.70;;;;;;6120706;23;20104;-65
2023/12/01 16:04:01;;;;;;;7.05;2.00;;;21.10;83.40;;;;;;6121727;23;20018;-65
2023/12/01 16:06:28;;;;;;;8.00;2.25;;;21.10;83.40;;;;;;6121272;23;20406;-66
2023/12/01 16:08:55;;;;;;;9.40;2.10;;;21.10;83.60;;;;;;6121932;23;20063;-65
2023/12/01 16:11:23;;;;;;;9.48;2.20;;;21.00;83.80;;;;;;6122266;23;20093;-65
2023/12/01 16:13:50;;;;;;;6.88;1.70;;;21.00;83.60;;;;;;6121788;23;20109;-65
2023/12/01 16:16:17;;;;;;;7.40;1.95;;;21.00;83.30;;;;;;6121650;23;20081;-66
2023/12/01 16:18:44;;;;;;;6.35;2.10;;;21.10;83.60;;;;;;6093123;23;20017;-66
2023/12/01 16:21:30;;;;;;;5.93;2.13;;;21.00;83.30;;;;;;6121476;23;20010;-66
2023/12/01 16:23:57;;;;;;;9.75;1.90;;;21.00;82.90;;;;;;6121433;23;20497;-66
2023/12/01 16:26:24;;;;;;;7.10;2.00;;;21.10;83.40;;;;;;6122156;23;20072;-66
2023/12/01 16:28:51;;;;;;;9.27;2.22;;;21.10;83.70;;;;;;6072250;23;20006;-66
2023/12/01 16:31:18;;;;;;;7.78;1.95;;;21.00;83.70;;;;;;6123126;23;20013;-65
2023/12/01 16:33:46;;;;;;;6.90;1.80;;;21.00;83.50;;;;;;6123230;23;20068;-66
2023/12/01 16:36:13;;;;;;;9.05;2.33;;;21.00;83.00;;;;;;6123115;23;20088;-66
2023/12/01 16:38:40;;;;;;;5.57;1.92;;;21.10;83.50;;;;;;6124346;23;20005;-65
2023/12/01 16:41:07;;;;;;;9.02;2.40;;;21.00;83.40;;;;;;6124294;23;20026;-65
2023/12/01 16:43:35;;;;;;;8.35;2.03;;;21.00;83.40;;;;;;6122862;23;20085;-66
2023/12/01 16:46:02;;;;;;;6.32;1.80;;;21.00;83.40;;;;;;6123129;23;20018;-66
2023/12/01 16:48:29;;;;;;;6.53;2.00;;;20.90;83.60;;;;;;6123490;23;20049;-66
2023/12/01 16:50:57;;;;;;;12.13;2.42;;;20.90;83.40;;;;;;6123922;23;20006;-67
2023/12/01 16:53:24;;;;;;;7.65;1.75;;;20.90;83.70;;;;;;6123671;23;20341;-67
2023/12/01 16:55:51;;;;;;;5.93;1.90;;;20.90;84.00;;;;;;6123496;23;20006;-67
2023/12/01 16:58:19;;;;;;;7.68;1.73;;;20.90;83.60;;;;;;6123400;23;20010;-68
2023/12/01 17:00:46;;;;;;;12.55;2.50;;;20.90;83.50;;;;;;6122682;23;20370;-67
2023/12/01 17:03:14;;;;;;;12.95;2.10;;;20.90;83.70;;;;;;6122698;23;20006;-67
2023/12/01 17:05:41;;;;;;;6.05;2.28;;;20.80;83.80;;;;;;6123821;23;20408;-67
2023/12/01 17:08:08;;;;;;;6.32;1.83;;;20.80;83.50;;;;;;6124383;23;20081;-66
2023/12/01 17:10:35;;;;;;;7.25;2.38;;;20.80;83.80;;;;;;6123564;23;20062;-66
2023/12/01 17:13:03;;;;;;;7.47;2.45;;;20.80;83.40;;;;;;6122802;23;20057;-67
2023/12/01 17:15:30;;;;;;;5.10;1.60;;;20.90;83.70;;;;;;6123606;23;20033;-67
2023/12/01 17:17:57;;;;;;;8.02;2.40;;;20.80;83.50;;;;;;6123685;23;20077;-65
2023/12/01 17:20:25;;;;;;;6.18;1.88;;;20.80;83.80;;;;;;6120014;23;20010;-65
2023/12/01 17:22:52;;;;;;;10.80;2.40;;;20.80;83.90;;;;;;6121945;23;20368;-66
2023/12/01 17:25:19;;;;;;;11.60;2.20;;;20.80;83.80;;;;;;6122028;23;20376;-66
2023/12/01 17:27:46;;;;;;;8.63;2.72;;;20.80;84.00;;;;;;6123000;23;20081;-66
2023/12/01 17:30:14;;;;;;;6.95;1.77;;;20.80;84.30;;;;;;6122664;23;20010;-65
2023/12/01 17:32:41;;;;;;;7.53;1.77;;;20.80;84.20;;;;;;6122978;23;20016;-66
2023/12/01 17:35:08;;;;;;;8.95;2.35;;;20.80;84.20;;;;;;6121894;23;20033;-65
2023/12/01 17:37:36;;;;;;;7.35;1.98;;;20.80;84.30;;;;;;6122452;23;20070;-65
2023/12/01 17:40:03;;;;;;;5.85;2.03;;;20.80;84.60;;;;;;6122628;23;20064;-65
2023/12/01 17:42:30;;;;;;;7.15;2.25;;;20.80;84.40;;;;;;6123113;23;20034;-65
2023/12/01 17:44:58;;;;;;;6.40;1.90;;;20.80;84.30;;;;;;6122861;23;20009;-65
2023/12/01 17:47:25;;;;;;;6.28;1.48;;;20.90;84.30;;;;;;6121024;23;20002;-66
2023/12/01 17:49:52;;;;;;;7.38;1.90;;;20.80;84.60;;;;;;6122434;23;19999;-66
2023/12/01 17:52:19;;;;;;;6.88;2.03;;;20.90;84.60;;;;;;6096675;23;20456;-65
2023/12/01 17:54:47;;;;;;;10.63;2.42;;;20.90;84.60;;;;;;6122509;23;19998;-65
2023/12/01 17:57:14;;;;;;;11.55;2.25;;;20.80;84.90;;;;;;6123166;23;20021;-66
2023/12/01 17:59:41;;;;;;;10.38;1.83;;;20.80;84.90;;;;;;6122331;23;20460;-66
2023/12/01 18:02:08;;;;;;;6.40;1.70;;;20.80;85.10;;;;;;6121871;23;20041;-65
2023/12/01 18:04:36;;;;;;;7.00;1.70;;;20.80;85.40;;;;;;6122294;23;20002;-66
2023/12/01 18:07:03;;;;;;;6.43;2.30;;;20.80;85.20;;;;;;6096925;23;20009;-65
2023/12/01 18:09:31;;;;;;;9.20;1.95;;;20.80;85.20;;;;;;6121152;23;20002;-66
2023/12/01 18:11:58;;;;;;;6.32;2.22;;;20.80;85.30;;;;;;6145760;23;20025;-66
2023/12/01 18:14:25;;;;;;;7.43;1.95;;;20.80;85.60;;;;;;6097035;23;20061;-66
2023/12/01 18:16:55;;;;;;;7.95;1.98;;;20.80;85.20;;;;;;6123046;23;20294;-66
2023/12/01 18:19:23;;;;;;;6.35;1.98;;;20.80;85.10;;;;;;6120636;23;20464;-66
2023/12/01 18:21:51;;;;;;;7.72;2.10;;;20.80;85.10;;;;;;6120729;23;20377;-66
2023/12/01 18:24:18;;;;;;;8.52;1.80;;;20.80;85.10;;;;;;6122514;23;20017;-66
2023/12/01 18:26:45;;;;;;;7.35;1.60;;;20.80;85.30;;;;;;6122931;23;20433;-66
2023/12/01 18:29:12;;;;;;;6.82;1.70;;;20.80;85.40;;;;;;6123225;23;20081;-66
2023/12/01 18:31:39;;;;;;;5.57;1.75;;;20.80;85.20;;;;;;6122670;23;20453;-66
2023/12/01 18:34:07;;;;;;;7.60;1.98;;;20.80;85.30;;;;;;6122149;23;20336;-66
2023/12/01 18:36:34;;;;;;;6.10;1.70;;;20.80;85.50;;;;;;6122712;23;20017;-66
2023/12/01 18:39:01;;;;;;;6.63;1.55;;;20.80;85.10;;;;;;6096594;23;20029;-67
2023/12/01 18:41:28;;;;;;;5.45;1.60;;;20.80;85.30;;;;;;6122016;23;20022;-66
2023/12/01 18:43:55;;;;;;;11.02;2.25;;;20.80;85.40;;;;;;6121985;23;20005;-66
2023/12/01 18:46:23;;;;;;;5.30;1.85;;;20.80;85.50;;;;;;6122523;23;20009;-66
2023/12/01 18:48:50;;;;;;;1143.00;334.63;;;20.80;85.80;;;;;;6121595;23;20006;-66
2023/12/01 18:51:18;;;;;;;9.03;2.27;;;20.80;85.80;;;;;;6119263;23;20362;-66
2023/12/01 18:53:45;;;;;;;5.20;1.77;;;20.70;86.00;;;;;;6122285;23;20451;-66
2023/12/01 18:56:12;;;;;;;14.40;3.42;;;20.70;85.70;;;;;;6122882;23;20018;-66
2023/12/01 18:58:39;;;;;;;16.48;2.67;;;20.70;85.80;;;;;;6122843;23;20006;-66
2023/12/01 19:01:07;;;;;;;7.78;2.00;;;20.70;85.30;;;;;;6122145;23;20025;-66
2023/12/01 19:03:34;;;;;;;344.63;95.63;;;20.70;85.50;;;;;;6121824;23;20013;-66
2023/12/01 19:06:01;;;;;;;9.40;2.28;;;20.70;85.60;;;;;;6122714;23;20040;-66
2023/12/01 19:08:28;;;;;;;10.68;2.30;;;20.70;85.30;;;;;;6122013;23;20002;-66
2023/12/01 19:10:56;;;;;;;9.00;1.80;;;20.70;85.10;;;;;;6122613;23;20006;-66
2023/12/01 19:13:23;;;;;;;6.95;1.83;;;20.70;85.10;;;;;;6121874;23;20069;-66
2023/12/01 19:15:50;;;;;;;5.50;1.80;;;20.70;85.40;;;;;;6121729;23;20013;-66
2023/12/01 19:18:17;;;;;;;8.85;1.83;;;20.70;85.50;;;;;;6119720;23;20082;-67
2023/12/01 19:20:45;;;;;;;9.38;2.28;;;20.70;85.40;;;;;;6121526;23;20337;-67
2023/12/01 19:23:12;;;;;;;5.63;1.60;;;20.80;84.80;;;;;;6121203;23;20417;-67
2023/12/01 19:25:39;;;;;;;5.85;1.73;;;20.80;85.00;;;;;;6122220;23;20009;-66
2023/12/01 19:28:06;;;;;;;6.45;1.95;;;20.80;85.60;;;;;;6145540;23;20013;-67
2023/12/01 19:30:33;;;;;;;11.20;2.10;;;20.80;85.60;;;;;;6121864;23;20013;-67
2023/12/01 19:33:01;;;;;;;9.32;2.35;;;20.80;85.40;;;;;;6121298;23;20021;-66
2023/12/01 19:35:28;;;;;;;7.20;2.15;;;20.80;85.20;;;;;;6121918;23;20002;-67
2023/12/01 19:37:55;;;;;;;11.05;2.10;;;20.80;84.80;;;;;;6122237;23;20016;-67
2023/12/01 19:40:22;;;;;;;8.23;1.98;;;20.80;84.50;;;;;;6122069;23;20021;-66
2023/12/01 19:42:49;;;;;;;7.82;2.00;;;20.80;85.00;;;;;;6121645;23;20060;-67
2023/12/01 19:45:17;;;;;;;8.40;2.45;;;20.80;84.30;;;;;;6121494;23;20013;-66
2023/12/01 19:47:44;;;;;;;9.63;2.13;;;20.90;84.70;;;;;;6121342;23;20009;-67
2023/12/01 19:50:11;;;;;;;7.57;2.30;;;20.90;84.50;;;;;;6121821;23;20326;-67
2023/12/01 19:52:38;;;;;;;6.45;2.00;;;20.90;85.00;;;;;;6121558;23;20014;-65
2023/12/01 19:55:07;;;;;;;7.50;2.05;;;20.90;85.20;;;;;;6122125;23;20013;-65
2023/12/01 19:57:34;;;;;;;6.47;1.95;;;20.90;85.10;;;;;;6122112;23;20093;-66
2023/12/01 20:00:02;;;;;;;9.93;2.28;;;20.90;84.90;;;;;;6121287;23;20104;-66
2023/12/01 20:02:30;;;;;;;7.55;1.73;;;20.90;84.40;;;;;;6121354;23;20045;-65
2023/12/01 20:04:57;;;;;;;8.38;2.05;;;20.90;84.70;;;;;;6122578;23;20002;-65
2023/12/01 20:07:24;;;;;;;8.85;2.40;;;21.00;84.50;;;;;;6124686;23;20002;-66
2023/12/01 20:09:51;;;;;;;9.30;1.95;;;21.00;84.50;;;;;;6123147;23;20114;-66
2023/12/01 20:12:18;;;;;;;8.98;1.80;;;21.00;84.90;;;;;;6122636;23;20053;-66
2023/12/01 20:14:46;;;;;;;6.53;1.85;;;21.10;84.50;;;;;;6123782;23;20081;-66
2023/12/01 20:17:13;;;;;;;6.47;2.40;;;21.10;83.80;;;;;;6123691;23;20017;-66
2023/12/01 20:19:40;;;;;;;5.80;1.60;;;21.20;83.70;;;;;;6121623;23;20085;-66
2023/12/01 20:22:07;;;;;;;7.28;1.90;;;21.20;84.20;;;;;;6123180;23;20053;-66
2023/12/01 20:24:35;;;;;;;4.43;1.60;;;21.20;83.70;;;;;;6122796;23;20009;-66
2023/12/01 20:27:03;;;;;;;5.28;1.90;;;21.20;83.70;;;;;;6124014;23;20332;-66
2023/12/01 20:29:31;;;;;;;5.30;1.70;;;21.30;83.70;;;;;;6123518;23;20092;-66
2023/12/01 20:31:58;;;;;;;6.47;1.90;;;21.20;83.50;;;;;;6123267;23;20037;-66
2023/12/01 20:34:26;;;;;;;8.50;2.03;;;21.30;84.00;;;;;;6097534;23;20037;-66
2023/12/01 20:36:53;;;;;;;6.90;1.80;;;21.30;84.20;;;;;;6123034;23;20013;-66
2023/12/01 20:39:20;;;;;;;11.48;2.13;;;21.30;83.40;;;;;;6123627;23;20032;-66
2023/12/01 20:41:47;;;;;;;7.35;1.90;;;21.30;83.00;;;;;;6123669;23;20018;-66
2023/12/01 20:44:15;;;;;;;7.45;1.98;;;21.30;83.30;;;;;;6123407;23;20002;-65
2023/12/01 20:46:42;;;;;;;7.05;2.22;;;21.30;83.50;;;;;;6123232;23;20018;-66
2023/12/01 20:49:09;;;;;;;5.78;2.17;;;21.30;82.90;;;;;;6122714;23;20065;-65
2023/12/01 20:51:37;;;;;;;6.85;1.98;;;21.30;82.80;;;;;;6123185;23;20022;-66
2023/12/01 20:54:04;;;;;;;7.47;2.30;;;21.30;83.10;;;;;;6121544;23;20002;-66
2023/12/01 20:56:31;;;;;;;6.38;2.20;;;21.30;82.60;;;;;;6123293;23;20006;-67
2023/12/01 20:58:58;;;;;;;7.13;1.90;;;21.30;83.20;;;;;;6121417;23;20029;-66
2023/12/01 21:01:25;;;;;;;6.35;1.92;;;21.40;83.40;;;;;;6123331;23;20343;-66
2023/12/01 21:03:53;;;;;;;10.13;1.90;;;21.40;83.30;;;;;;6123593;23;20002;-67
2023/12/01 21:06:20;;;;;;;4.50;1.60;;;21.40;83.30;;;;;;6123502;23;20445;-66
2023/12/01 21:08:47;;;;;;;6.32;1.90;;;21.40;83.20;;;;;;6123153;23;20378;-68
2023/12/01 21:11:14;;;;;;;6.60;1.77;;;21.40;83.10;;;;;;6123370;23;20022;-66
2023/12/01 21:13:42;;;;;;;8.75;2.50;;;21.50;83.00;;;;;;6122464;23;20010;-67
2023/12/01 21:16:09;;;;;;;7.03;2.10;;;21.40;83.20;;;;;;6122854;23;20444;-66
2023/12/01 21:18:36;;;;;;;7.60;2.10;;;21.50;82.90;;;;;;6120978;23;20479;-67
2023/12/01 21:21:03;;;;;;;5.25;1.55;;;21.50;82.70;;;;;;6123289;23;20020;-66
2023/12/01 21:23:33;;;;;;;4.63;1.50;;;21.40;82.80;;;;;;6121679;23;20025;-66
2023/12/01 21:26:00;;;;;;;9.43;1.77;;;21.40;82.70;;;;;;6097295;23;20097;-66
2023/12/01 21:28:27;;;;;;;6.72;1.70;;;21.40;83.10;;;;;;6121540;23;20061;-66
2023/12/01 21:30:54;;;;;;;6.75;2.00;;;21.40;83.20;;;;;;6122538;23;20037;-65
2023/12/01 21:33:22;;;;;;;9.25;1.90;;;21.40;82.70;;;;;;6122863;23;20006;-65
2023/12/01 21:35:50;;;;;;;7.22;1.80;;;21.40;82.40;;;;;;6122913;23;20006;-66
2023/12/01 21:38:17;;;;;;;4.93;1.90;;;21.50;82.60;;;;;;6122264;23;20037;-66
2023/12/01 21:40:48;;;;;;;6.47;1.70;;;21.50;83.10;;;;;;6122827;23;20504;-66
2023/12/01 21:43:16;;;;;;;5.97;2.13;;;21.50;82.50;;;;;;6122382;23;20013;-66
2023/12/01 21:45:43;;;;;;;7.20;1.63;;;21.50;82.80;;;;;;6122985;23;20006;-66
2023/12/01 21:48:11;;;;;;;5.15;1.88;;;21.50;82.10;;;;;;6122998;23;20011;-65
2023/12/01 21:50:38;;;;;;;8.38;2.30;;;21.50;81.40;;;;;;6121582;23;20457;-66
2023/12/01 21:53:06;;;;;;;9.88;2.00;;;21.50;82.10;;;;;;6122473;23;20507;-66
2023/12/01 21:55:34;;;;;;;6.57;1.70;;;21.50;82.30;;;;;;6145030;23;20006;-66
2023/12/01 21:58:02;;;;;;;4.78;1.70;;;21.60;82.90;;;;;;6122080;23;20014;-66
2023/12/01 22:00:30;;;;;;;5.55;1.90;;;21.50;82.00;;;;;;6121751;23;20041;-66
2023/12/01 22:02:59;;;;;;;6.80;1.77;;;21.50;81.30;;;;;;6121142;23;20014;-66
2023/12/01 22:05:26;;;;;;;7.05;1.77;;;21.50;80.80;;;;;;6122789;23;20005;-67
2023/12/01 22:07:53;;;;;;;10.32;2.20;;;21.60;81.90;;;;;;6122910;23;20016;-66
2023/12/01 22:10:21;;;;;;;7.30;1.88;;;21.60;82.20;;;;;;6122586;23;20010;-66
2023/12/01 22:12:48;;;;;;;10.82;2.00;;;21.60;82.50;;;;;;6122658;23;20034;-66
2023/12/01 22:15:15;;;;;;;5.50;1.83;;;21.60;81.50;;;;;;6123266;23;20405;-66
2023/12/01 22:17:43;;;;;;;8.60;2.03;;;21.60;80.80;;;;;;6122626;23;20129;-66
2023/12/01 22:20:10;;;;;;;5.63;2.03;;;21.60;81.50;;;;;;6120637;23;20068;-66
2023/12/01 22:22:38;;;;;;;6.82;1.90;;;21.70;81.00;;;;;;6122690;23;20021;-67
2023/12/01 22:25:05;;;;;;;9.20;2.45;;;21.60;81.50;;;;;;6120731;23;20440;-66